Time;durP1;ratioP1;P1;durP2;ratioP2;P2;SDS_P1;SDS_P2;PMS_P1;PMS_P2;Temp;Humidity;BMP_temperature;BMP_pressure;BME280_temperature;BME280_humidity;BME280_pressure;Samples;Min_cycle;Max_cycle;Signal;HPM_P1;HPM_P2
2022/03/19 00:01:21;;;;;;;2.20;2.07;;;15.50;99.90;;;;;;5060660;28;20954;-58
2022/03/19 00:03:52;;;;;;;2.70;1.73;;;15.40;99.90;;;;;;5062824;28;20449;-59
2022/03/19 00:06:23;;;;;;;2.00;1.40;;;15.40;99.90;;;;;;5067741;28;20597;-58
2022/03/19 00:08:55;;;;;;;4.90;4.47;;;15.30;99.90;;;;;;5060757;28;20551;-59
2022/03/19 00:11:28;;;;;;;2.40;2.20;;;15.10;99.90;;;;;;5070797;28;20487;-59
2022/03/19 00:13:59;;;;;;;6.87;4.73;;;15.10;99.90;;;;;;5061376;28;20458;-58
2022/03/19 00:16:31;;;;;;;2.23;2.03;;;15.10;99.90;;;;;;5063979;28;20502;-59
2022/03/19 00:19:02;;;;;;;3.83;3.27;;;15.10;99.90;;;;;;5060075;28;20536;-58
2022/03/19 00:21:33;;;;;;;3.63;3.33;;;15.20;99.90;;;;;;5064780;28;20449;-58
2022/03/19 00:24:04;;;;;;;3.00;1.87;;;15.10;99.90;;;;;;5060691;28;20451;-58
2022/03/19 00:26:37;;;;;;;1.30;1.20;;;15.10;99.90;;;;;;5057526;28;20475;-58
2022/03/19 00:29:08;;;;;;;0.93;0.93;;;15.00;99.90;;;;;;5060233;28;20658;-58
2022/03/19 00:31:38;;;;;;;1.83;1.23;;;15.10;99.90;;;;;;5061908;28;20492;-59
2022/03/19 00:34:09;;;;;;;2.13;1.40;;;15.00;99.90;;;;;;5063947;28;20852;-57
2022/03/19 00:36:40;;;;;;;2.23;2.03;;;14.90;99.90;;;;;;5065830;28;20552;-59
2022/03/19 00:39:11;;;;;;;1.37;1.27;;;15.00;99.90;;;;;;5063388;28;20448;-59
2022/03/19 00:41:43;;;;;;;1.00;1.00;;;15.10;99.90;;;;;;5061106;28;20850;-58
2022/03/19 00:44:14;;;;;;;1.67;1.30;;;15.00;99.90;;;;;;5063725;28;20534;-60
2022/03/19 00:46:45;;;;;;;1.17;1.07;;;15.00;99.90;;;;;;5059088;28;20550;-63
2022/03/19 00:49:17;;;;;;;1.87;1.30;;;14.90;99.90;;;;;;5063539;28;20762;-62
2022/03/19 00:51:47;;;;;;;1.53;1.30;;;14.90;99.90;;;;;;5056712;28;21009;-62
2022/03/19 00:54:18;;;;;;;3.20;1.20;;;14.80;99.90;;;;;;5049335;28;20448;-61
2022/03/19 00:56:51;;;;;;;3.20;1.30;;;14.70;99.90;;;;;;5055296;28;20448;-62
2022/03/19 00:59:22;;;;;;;1.53;1.43;;;14.70;99.90;;;;;;5070614;28;20448;-60
2022/03/19 01:01:53;;;;;;;1.40;1.30;;;14.70;99.90;;;;;;5061531;28;20590;-61
2022/03/19 01:04:24;;;;;;;1.60;1.50;;;14.60;99.90;;;;;;5061893;28;20457;-61
2022/03/19 01:06:55;;;;;;;4.93;3.87;;;14.70;99.90;;;;;;5054911;28;20464;-60
2022/03/19 01:09:26;;;;;;;4.40;4.00;;;14.80;99.90;;;;;;5059895;28;20468;-63
2022/03/19 01:11:59;;;;;;;4.90;3.93;;;14.80;99.90;;;;;;5061489;28;20511;-63
2022/03/19 01:14:29;;;;;;;3.80;3.50;;;14.80;99.90;;;;;;5049280;28;20487;-64
2022/03/19 01:17:09;;;;;;;7.30;6.80;;;14.80;99.90;;;;;;5061290;28;20490;-61
2022/03/19 01:19:54;;;;;;;3.73;3.43;;;14.70;99.90;;;;;;5059490;28;20581;-62
2022/03/19 01:22:26;;;;;;;2.10;2.00;;;14.80;99.90;;;;;;5062318;28;20464;-62
2022/03/19 01:24:57;;;;;;;3.60;3.30;;;14.60;99.90;;;;;;5066688;28;20444;-59
2022/03/19 01:27:29;;;;;;;33.30;30.30;;;14.50;99.90;;;;;;5063943;28;20795;-60
2022/03/19 01:30:01;;;;;;;5.67;5.17;;;14.60;99.90;;;;;;5063952;28;20468;-61
2022/03/19 01:32:41;;;;;;;4.87;4.47;;;14.60;99.90;;;;;;5062476;28;20460;-62
2022/03/19 01:35:14;;;;;;;1.60;1.50;;;14.40;99.90;;;;;;5055702;28;20520;-59
2022/03/19 01:37:45;;;;;;;1.87;1.77;;;14.50;99.90;;;;;;5069088;28;20466;-59
2022/03/19 01:40:19;;;;;;;2.17;2.07;;;14.50;99.90;;;;;;5063352;28;20464;-60
2022/03/19 01:42:53;;;;;;;2.30;2.10;;;14.60;99.90;;;;;;5060378;28;20445;-59
2022/03/19 01:45:25;;;;;;;1.80;1.70;;;14.50;99.90;;;;;;5064875;28;20435;-58
2022/03/19 01:47:56;;;;;;;1.37;1.30;;;14.40;99.90;;;;;;5064190;28;20481;-59
2022/03/19 01:50:28;;;;;;;1.80;1.50;;;14.30;99.90;;;;;;5064297;28;20448;-59
2022/03/19 01:53:00;;;;;;;1.60;1.50;;;14.40;99.90;;;;;;5064095;28;20452;-59
2022/03/19 01:55:31;;;;;;;2.10;1.70;;;14.40;99.90;;;;;;5059250;28;20444;-59
2022/03/19 01:58:04;;;;;;;1.60;1.50;;;14.30;99.90;;;;;;5063496;28;20503;-60
2022/03/19 02:00:35;;;;;;;1.50;1.40;;;14.30;99.90;;;;;;5063905;28;20457;-64
2022/03/19 02:03:16;;;;;;;2.20;1.77;;;14.20;99.90;;;;;;5056488;28;20559;-61
2022/03/19 02:05:49;;;;;;;1.40;1.30;;;14.10;99.90;;;;;;5066260;28;20459;-61
2022/03/19 02:08:21;;;;;;;1.77;1.30;;;14.10;99.90;;;;;;5064222;28;20814;-60
2022/03/19 02:10:52;;;;;;;1.17;1.00;;;13.90;99.90;;;;;;5063909;28;20488;-61
2022/03/19 02:13:25;;;;;;;1.70;1.17;;;13.90;99.90;;;;;;5056109;28;20548;-59
2022/03/19 02:15:56;;;;;;;1.80;1.20;;;13.80;99.90;;;;;;5063861;28;20440;-60
2022/03/19 02:18:30;;;;;;;2.00;1.40;;;13.80;99.90;;;;;;5068804;28;20501;-61
2022/03/19 02:21:01;;;;;;;2.17;1.33;;;13.80;99.90;;;;;;5067426;28;20629;-60
2022/03/19 02:26:28;;;;;;;1.20;1.10;;;13.60;99.90;;;;;;5064420;28;20796;-59
2022/03/19 02:28:59;;;;;;;1.50;1.40;;;13.50;99.90;;;;;;5077124;28;20435;-59
2022/03/19 02:31:30;;;;;;;1.70;1.50;;;13.60;99.90;;;;;;5074303;28;20480;-60
2022/03/19 02:34:01;;;;;;;3.63;1.87;;;13.50;99.90;;;;;;5062759;28;20512;-59
2022/03/19 02:36:32;;;;;;;1.80;1.40;;;13.50;99.90;;;;;;5062489;28;20467;-59
2022/03/19 02:39:28;;;;;;;1.80;1.20;;;13.60;99.90;;;;;;5061043;28;20440;-59
2022/03/19 02:42:00;;;;;;;2.10;0.97;;;13.50;99.90;;;;;;5064541;28;20943;-59
2022/03/19 02:44:31;;;;;;;1.10;0.93;;;13.50;99.90;;;;;;5062705;28;20456;-59
2022/03/19 02:47:04;;;;;;;2.40;1.33;;;13.40;99.90;;;;;;5059231;28;20481;-59
2022/03/19 02:49:35;;;;;;;1.00;0.90;;;13.30;99.90;;;;;;5063275;28;21037;-59
2022/03/19 02:52:07;;;;;;;1.17;1.00;;;13.30;99.90;;;;;;5066239;28;20513;-60
2022/03/19 02:54:39;;;;;;;1.93;1.10;;;13.20;99.90;;;;;;5062317;28;20463;-60
2022/03/19 02:57:10;;;;;;;1.30;1.20;;;13.10;99.90;;;;;;5058890;28;20571;-60
2022/03/19 02:59:41;;;;;;;1.83;1.53;;;13.20;99.90;;;;;;5064578;28;20824;-60
2022/03/19 03:02:12;;;;;;;2.20;2.00;;;13.20;99.90;;;;;;5063061;28;20449;-60
2022/03/19 03:04:44;;;;;;;1.97;1.40;;;13.10;99.90;;;;;;5062422;28;20526;-59
2022/03/19 03:07:15;;;;;;;1.90;1.77;;;13.10;99.90;;;;;;5054717;28;20471;-59
2022/03/19 03:09:48;;;;;;;2.47;1.70;;;13.00;99.90;;;;;;5063285;28;20546;-60
2022/03/19 03:12:19;;;;;;;2.37;2.17;;;13.00;99.90;;;;;;5061445;28;20480;-60
2022/03/19 03:14:50;;;;;;;1.60;1.40;;;13.00;99.90;;;;;;5062626;28;20457;-59
2022/03/19 03:17:21;;;;;;;2.53;2.00;;;13.00;99.90;;;;;;5066563;28;20882;-60
2022/03/19 03:19:53;;;;;;;1.30;1.20;;;12.90;99.90;;;;;;5063489;28;20436;-60
2022/03/19 03:22:24;;;;;;;1.50;1.40;;;12.90;99.90;;;;;;5061765;28;20562;-59
2022/03/19 03:24:56;;;;;;;2.17;1.57;;;12.90;99.90;;;;;;5047756;28;20468;-60
2022/03/19 03:27:28;;;;;;;1.40;1.30;;;12.90;99.90;;;;;;5065395;28;20583;-59
2022/03/19 03:29:58;;;;;;;2.00;1.73;;;12.80;99.90;;;;;;5058887;28;20463;-59
2022/03/19 03:32:29;;;;;;;2.03;1.50;;;12.70;99.90;;;;;;5068808;28;20483;-60
2022/03/19 03:35:01;;;;;;;2.40;1.30;;;12.60;99.90;;;;;;5062589;28;20441;-60
2022/03/19 03:37:32;;;;;;;1.97;1.40;;;12.70;99.90;;;;;;5063231;28;20523;-60
2022/03/19 03:40:05;;;;;;;1.87;1.50;;;12.60;99.90;;;;;;5061556;28;20448;-59
2022/03/19 03:42:36;;;;;;;1.73;1.60;;;12.60;99.90;;;;;;5060525;28;20457;-60
2022/03/19 03:45:08;;;;;;;2.73;2.53;;;12.50;99.90;;;;;;5061456;28;20482;-60
2022/03/19 03:47:39;;;;;;;3.07;2.60;;;12.50;99.90;;;;;;5065489;28;20448;-60
2022/03/19 03:50:11;;;;;;;3.80;2.40;;;12.50;99.90;;;;;;5061340;28;20467;-60
2022/03/19 03:52:42;;;;;;;2.47;2.27;;;12.60;99.90;;;;;;5061813;28;20997;-60
2022/03/19 03:55:16;;;;;;;2.80;2.00;;;12.50;99.90;;;;;;5061118;28;20571;-60
2022/03/19 03:57:47;;;;;;;2.33;2.17;;;12.50;99.90;;;;;;5060794;28;20444;-59
2022/03/19 04:00:19;;;;;;;2.30;2.10;;;12.40;99.90;;;;;;5063593;28;20448;-60
2022/03/19 04:02:50;;;;;;;3.43;2.77;;;12.30;99.90;;;;;;5061550;28;20521;-59
2022/03/19 04:05:21;;;;;;;4.97;2.30;;;12.20;99.90;;;;;;5062310;28;20995;-59
2022/03/19 04:07:52;;;;;;;3.30;2.50;;;12.20;99.90;;;;;;5061615;28;20517;-59
2022/03/19 04:10:25;;;;;;;2.80;2.60;;;12.20;99.90;;;;;;5062015;28;20478;-59
2022/03/19 04:12:56;;;;;;;3.07;2.87;;;12.20;99.90;;;;;;5064334;28;20538;-59
2022/03/19 04:15:27;;;;;;;2.27;2.07;;;12.30;99.90;;;;;;5061344;28;20440;-59
2022/03/19 04:17:58;;;;;;;3.37;1.93;;;12.30;99.90;;;;;;5061965;28;20484;-59
2022/03/19 04:20:29;;;;;;;3.40;2.63;;;12.30;99.90;;;;;;5068122;28;20803;-59
2022/03/19 04:23:02;;;;;;;3.60;3.30;;;12.30;99.90;;;;;;5070014;28;21018;-59
2022/03/19 04:25:35;;;;;;;3.63;3.20;;;12.40;99.90;;;;;;5058090;28;20448;-60
2022/03/19 04:28:06;;;;;;;3.37;2.93;;;12.40;99.90;;;;;;5060777;28;20460;-59
2022/03/19 04:30:37;;;;;;;3.97;2.97;;;12.50;99.90;;;;;;5070952;28;20451;-60
2022/03/19 04:33:08;;;;;;;4.17;2.83;;;12.60;99.90;;;;;;5062868;28;20818;-59
2022/03/19 04:38:27;;;;;;;4.80;2.90;;;12.60;99.90;;;;;;5059467;28;20583;-60
2022/03/19 04:41:00;;;;;;;3.00;2.80;;;12.60;99.90;;;;;;5061585;28;20452;-59
2022/03/19 04:43:32;;;;;;;2.80;2.60;;;12.60;99.90;;;;;;5059462;28;20447;-59
2022/03/19 04:46:03;;;;;;;3.73;3.33;;;12.50;99.90;;;;;;5063147;28;20980;-59
2022/03/19 04:48:34;;;;;;;2.80;2.60;;;12.40;99.90;;;;;;5059593;28;20452;-60
2022/03/19 04:51:06;;;;;;;6.00;3.50;;;12.40;99.90;;;;;;5064719;28;20463;-59
2022/03/19 04:53:37;;;;;;;3.27;2.97;;;12.40;99.90;;;;;;5061149;28;20484;-59
2022/03/19 04:56:09;;;;;;;2.87;2.57;;;12.40;99.90;;;;;;5061787;28;20456;-59
2022/03/19 04:58:40;;;;;;;3.20;2.90;;;12.30;99.90;;;;;;5079657;28;20479;-59
2022/03/19 05:01:12;;;;;;;3.50;3.03;;;12.40;99.90;;;;;;5076819;28;20511;-60
2022/03/19 05:03:43;;;;;;;3.30;3.07;;;12.40;99.90;;;;;;5073035;28;20826;-59
2022/03/19 05:06:14;;;;;;;3.33;3.03;;;12.40;99.90;;;;;;5079496;28;20455;-59
2022/03/19 05:08:45;;;;;;;3.40;2.87;;;12.30;99.90;;;;;;5066220;28;20479;-59
2022/03/19 05:11:18;;;;;;;4.07;2.73;;;12.40;99.90;;;;;;5057471;28;20520;-59
2022/03/19 05:13:52;;;;;;;4.83;2.77;;;12.40;99.90;;;;;;5063915;28;20484;-59
2022/03/19 05:16:24;;;;;;;3.20;2.90;;;12.40;99.90;;;;;;5064036;28;20444;-58
2022/03/19 05:18:55;;;;;;;4.97;3.23;;;12.40;99.90;;;;;;5067347;28;20472;-59
2022/03/19 05:21:27;;;;;;;3.83;3.17;;;12.40;99.90;;;;;;5074886;28;20487;-59
2022/03/19 05:23:58;;;;;;;4.40;4.00;;;12.40;99.90;;;;;;5066268;28;20801;-60
2022/03/19 05:26:31;;;;;;;4.37;3.47;;;12.50;99.90;;;;;;5066203;28;20452;-59
2022/03/19 05:29:02;;;;;;;3.97;3.60;;;12.40;99.90;;;;;;5063254;28;20475;-59
2022/03/19 05:31:36;;;;;;;3.50;3.20;;;12.50;99.90;;;;;;5064489;28;20440;-60
2022/03/19 05:36:55;;;;;;;4.70;4.30;;;12.50;99.90;;;;;;5065215;28;20475;-59
2022/03/19 05:39:27;;;;;;;4.00;3.70;;;12.50;99.90;;;;;;5063755;28;20515;-59
2022/03/19 05:42:00;;;;;;;4.50;3.77;;;12.50;99.90;;;;;;5057744;28;20458;-59
2022/03/19 05:44:31;;;;;;;4.20;3.90;;;12.40;99.90;;;;;;5068081;28;20477;-59
2022/03/19 05:47:04;;;;;;;3.93;3.60;;;12.30;99.90;;;;;;5064501;28;20531;-59
2022/03/19 05:49:35;;;;;;;3.77;3.30;;;12.30;99.90;;;;;;5064164;28;20476;-59
2022/03/19 05:52:07;;;;;;;3.33;3.03;;;12.30;99.90;;;;;;5064402;28;20440;-59
2022/03/19 05:54:38;;;;;;;5.13;3.20;;;12.30;99.90;;;;;;5068813;28;20509;-59
2022/03/19 05:57:10;;;;;;;3.40;3.10;;;12.30;99.90;;;;;;5067265;28;20473;-59
2022/03/19 05:59:41;;;;;;;4.90;3.00;;;12.20;99.90;;;;;;5063687;28;20452;-59
2022/03/19 06:02:12;;;;;;;3.83;2.97;;;12.20;99.90;;;;;;5063980;28;20447;-59
2022/03/19 06:04:43;;;;;;;3.53;3.27;;;12.10;99.90;;;;;;5064946;28;20463;-59
2022/03/19 06:07:14;;;;;;;3.10;2.90;;;12.10;99.90;;;;;;5063789;28;20457;-59
2022/03/19 06:09:45;;;;;;;3.73;3.27;;;12.10;99.90;;;;;;5063074;28;20459;-59
2022/03/19 06:12:18;;;;;;;3.87;3.47;;;12.10;99.90;;;;;;5068579;28;20545;-60
2022/03/19 06:14:53;;;;;;;4.30;3.90;;;12.10;99.90;;;;;;5065132;28;20488;-60
2022/03/19 06:17:24;;;;;;;3.60;3.30;;;12.10;99.90;;;;;;5059899;28;20490;-60
2022/03/19 06:19:54;;;;;;;3.93;3.63;;;12.10;99.90;;;;;;5064630;28;20468;-60
2022/03/19 06:22:25;;;;;;;5.53;4.30;;;12.10;99.90;;;;;;5066594;28;20487;-60
2022/03/19 06:24:56;;;;;;;5.47;4.70;;;12.10;99.90;;;;;;5063937;28;20464;-60
2022/03/19 06:27:30;;;;;;;6.83;4.97;;;12.10;99.90;;;;;;5061125;28;20544;-60
2022/03/19 06:30:00;;;;;;;4.73;4.20;;;12.00;99.90;;;;;;5063691;28;20483;-60
2022/03/19 06:32:31;;;;;;;4.60;4.17;;;11.90;99.90;;;;;;5071014;28;20439;-60
2022/03/19 06:35:03;;;;;;;4.60;4.17;;;11.90;99.90;;;;;;5064209;28;21134;-60
2022/03/19 06:37:33;;;;;;;4.60;3.93;;;12.00;99.90;;;;;;5063656;28;20833;-60
2022/03/19 06:40:06;;;;;;;3.53;3.23;;;12.00;99.90;;;;;;5073655;28;20510;-59
2022/03/19 06:42:39;;;;;;;4.17;3.77;;;12.00;99.90;;;;;;5068161;28;20460;-60
2022/03/19 06:45:10;;;;;;;5.03;3.70;;;11.90;99.90;;;;;;5062668;28;20474;-60
2022/03/19 06:47:41;;;;;;;4.70;3.83;;;11.90;99.90;;;;;;5063279;28;20444;-61
2022/03/19 06:50:12;;;;;;;4.67;3.50;;;11.80;99.90;;;;;;5068839;28;20472;-60
2022/03/19 06:52:43;;;;;;;3.20;2.90;;;11.80;99.90;;;;;;5065715;28;20452;-60
2022/03/19 06:55:14;;;;;;;3.57;3.27;;;11.70;99.90;;;;;;5069286;28;20484;-60
2022/03/19 06:57:47;;;;;;;2.67;2.43;;;11.80;99.90;;;;;;5062131;28;20573;-60
2022/03/19 07:00:19;;;;;;;4.00;2.67;;;11.90;99.90;;;;;;5067666;28;20468;-60
2022/03/19 07:02:50;;;;;;;3.47;2.60;;;11.90;99.90;;;;;;5060725;28;20447;-60
2022/03/19 07:05:22;;;;;;;3.40;3.10;;;12.00;99.90;;;;;;5072186;28;20849;-60
2022/03/19 07:07:54;;;;;;;2.83;2.63;;;12.00;99.90;;;;;;5062053;28;20504;-60
2022/03/19 07:10:24;;;;;;;4.30;2.93;;;12.00;99.90;;;;;;5062428;28;20452;-60
2022/03/19 07:12:58;;;;;;;3.03;2.73;;;12.00;99.90;;;;;;5062139;28;20467;-60
2022/03/19 07:15:30;;;;;;;4.93;2.93;;;12.00;99.90;;;;;;5063003;28;20452;-60
2022/03/19 07:18:01;;;;;;;4.23;3.83;;;11.90;99.90;;;;;;5063437;28;20480;-60
2022/03/19 07:20:33;;;;;;;3.40;3.10;;;11.80;99.90;;;;;;5062881;28;20557;-60
2022/03/19 07:23:05;;;;;;;4.30;2.93;;;11.80;99.90;;;;;;5063095;28;20461;-60
2022/03/19 07:25:37;;;;;;;3.87;3.10;;;11.70;99.90;;;;;;5048174;28;20452;-60
2022/03/19 07:28:11;;;;;;;3.40;2.97;;;11.70;99.90;;;;;;5062249;28;20453;-60
2022/03/19 07:30:43;;;;;;;5.33;3.33;;;11.70;99.90;;;;;;5062413;28;20452;-60
2022/03/19 07:33:13;;;;;;;4.70;3.47;;;11.70;99.90;;;;;;5063345;28;20449;-60
2022/03/19 07:35:45;;;;;;;6.60;4.20;;;11.80;99.90;;;;;;5063318;28;20455;-60
2022/03/19 07:38:16;;;;;;;4.30;3.47;;;11.80;99.90;;;;;;5062692;28;20511;-60
2022/03/19 07:43:36;;;;;;;6.13;3.50;;;11.80;99.90;;;;;;5061782;28;20467;-60
2022/03/19 07:46:07;;;;;;;5.00;3.77;;;11.80;99.90;;;;;;5063051;28;20475;-60
2022/03/19 07:48:38;;;;;;;4.20;3.80;;;11.80;99.90;;;;;;5062409;28;20467;-60
2022/03/19 07:51:10;;;;;;;4.50;4.10;;;11.70;99.90;;;;;;5062564;28;20454;-60
2022/03/19 07:53:41;;;;;;;4.63;3.73;;;11.80;99.90;;;;;;5062396;28;20466;-60
2022/03/19 07:56:12;;;;;;;4.13;3.37;;;11.80;99.90;;;;;;5052953;28;20467;-60
2022/03/19 07:58:49;;;;;;;4.43;3.03;;;11.90;99.90;;;;;;5061253;28;20478;-60
2022/03/19 08:01:21;;;;;;;3.87;2.80;;;11.90;99.90;;;;;;5062154;28;20452;-60
2022/03/19 08:03:52;;;;;;;3.57;3.10;;;11.90;99.90;;;;;;5058753;28;20463;-60
2022/03/19 08:06:23;;;;;;;3.37;3.10;;;11.90;99.90;;;;;;5065426;28;20441;-60
2022/03/19 08:08:54;;;;;;;4.10;3.13;;;11.90;99.90;;;;;;5063202;28;20452;-60
2022/03/19 08:11:25;;;;;;;4.70;3.87;;;11.80;99.90;;;;;;5058811;28;20452;-60
2022/03/19 08:13:57;;;;;;;3.27;2.90;;;11.90;99.90;;;;;;5062049;28;20476;-60
2022/03/19 08:16:28;;;;;;;3.93;3.20;;;11.80;99.90;;;;;;5073667;28;20466;-60
2022/03/19 08:18:59;;;;;;;4.27;2.63;;;11.90;99.90;;;;;;5061888;28;20445;-60
2022/03/19 08:21:30;;;;;;;3.57;2.90;;;11.90;99.90;;;;;;5058661;28;20467;-60
2022/03/19 08:24:01;;;;;;;4.63;2.93;;;11.90;99.90;;;;;;5060247;28;20475;-60
2022/03/19 08:26:32;;;;;;;3.43;2.30;;;11.90;99.90;;;;;;5051423;28;20568;-60
2022/03/19 08:29:05;;;;;;;3.90;3.07;;;11.90;99.90;;;;;;5060264;28;20455;-60
2022/03/19 08:31:36;;;;;;;3.60;3.30;;;12.00;99.90;;;;;;5061705;28;20448;-60
2022/03/19 08:34:07;;;;;;;5.57;3.30;;;12.00;99.90;;;;;;5058392;28;20500;-60
2022/03/19 08:36:38;;;;;;;3.23;2.80;;;11.90;99.90;;;;;;5063399;28;20467;-60
2022/03/19 08:41:56;;;;;;;3.43;3.10;;;12.00;99.90;;;;;;5047022;28;20451;-60
2022/03/19 08:44:28;;;;;;;2.67;2.47;;;12.00;99.90;;;;;;5067462;28;20631;-60
2022/03/19 08:46:59;;;;;;;2.67;2.47;;;12.00;99.90;;;;;;5060897;28;20482;-60
2022/03/19 08:49:31;;;;;;;3.77;2.73;;;12.00;99.90;;;;;;5061590;28;20437;-60
2022/03/19 08:52:02;;;;;;;4.23;2.67;;;12.00;99.90;;;;;;5058081;28;20459;-59
2022/03/19 08:54:32;;;;;;;7.00;3.30;;;12.00;99.90;;;;;;5072597;28;20488;-60
2022/03/19 08:57:03;;;;;;;3.50;2.93;;;11.90;99.90;;;;;;5059920;28;20454;-60
2022/03/19 08:59:38;;;;;;;3.10;2.73;;;11.90;99.90;;;;;;5062071;28;20452;-60
2022/03/19 09:02:18;;;;;;;5.20;2.87;;;11.90;99.90;;;;;;5060899;28;20452;-60
2022/03/19 09:04:49;;;;;;;3.73;2.70;;;11.80;99.90;;;;;;5062725;28;20440;-61
2022/03/19 09:07:20;;;;;;;2.90;2.57;;;11.70;99.90;;;;;;5074983;28;20448;-60
2022/03/19 09:09:52;;;;;;;2.57;2.37;;;11.60;99.90;;;;;;5064521;28;20928;-60
2022/03/19 09:12:36;;;;;;;3.90;2.73;;;11.60;99.90;;;;;;5061623;28;21023;-60
2022/03/19 09:15:13;;;;;;;2.50;2.30;;;11.60;99.90;;;;;;5061554;28;20506;-60
2022/03/19 09:17:43;;;;;;;3.50;2.70;;;11.60;99.90;;;;;;5062338;28;20481;-60
2022/03/19 09:20:15;;;;;;;3.03;2.20;;;11.60;99.90;;;;;;5072737;28;20440;-60
2022/03/19 09:22:46;;;;;;;2.83;2.53;;;11.60;99.90;;;;;;5070362;28;20439;-60
2022/03/19 09:25:17;;;;;;;2.90;2.70;;;11.50;99.90;;;;;;5062357;28;20470;-61
2022/03/19 09:27:48;;;;;;;3.30;2.70;;;11.60;99.90;;;;;;5059767;28;20448;-60
2022/03/19 09:30:20;;;;;;;4.20;2.30;;;11.50;99.90;;;;;;5060864;28;20492;-60
2022/03/19 09:32:51;;;;;;;3.30;2.57;;;11.50;99.90;;;;;;5060706;28;20455;-60
2022/03/19 09:35:45;;;;;;;2.17;1.97;;;11.50;99.90;;;;;;5061239;28;20499;-60
2022/03/19 09:38:17;;;;;;;3.10;2.00;;;11.50;99.90;;;;;;5060585;28;20852;-60
2022/03/19 09:40:48;;;;;;;3.57;2.30;;;11.50;99.90;;;;;;5061582;28;20483;-60
2022/03/19 09:43:19;;;;;;;4.80;1.97;;;11.50;99.90;;;;;;5061378;28;20516;-60
2022/03/19 09:45:52;;;;;;;2.30;2.10;;;11.50;99.90;;;;;;5064758;28;20492;-60
2022/03/19 09:48:23;;;;;;;2.40;1.80;;;11.40;99.90;;;;;;5064510;28;20462;-60
2022/03/19 09:50:56;;;;;;;2.63;2.03;;;11.40;99.90;;;;;;5064151;28;20462;-60
2022/03/19 09:53:29;;;;;;;2.27;1.80;;;11.40;99.90;;;;;;5066720;28;20479;-63
2022/03/19 09:56:20;;;;;;;2.47;1.70;;;11.50;99.90;;;;;;5064567;28;20480;-60
2022/03/19 09:58:52;;;;;;;4.63;2.30;;;11.50;99.90;;;;;;5063453;28;20536;-60
2022/03/19 10:01:25;;;;;;;2.17;1.87;;;11.50;99.90;;;;;;5072598;28;20463;-60
2022/03/19 10:04:02;;;;;;;5.50;2.50;;;11.50;99.90;;;;;;5063762;28;20448;-60
2022/03/19 10:09:23;;;;;;;2.83;1.83;;;11.50;99.90;;;;;;5063839;28;20455;-60
2022/03/19 10:11:54;;;;;;;3.70;1.83;;;11.40;99.90;;;;;;5063824;28;20457;-60
2022/03/19 10:14:26;;;;;;;2.70;2.30;;;11.30;99.90;;;;;;5063017;28;20620;-60
2022/03/19 10:16:59;;;;;;;1.97;1.50;;;11.40;99.90;;;;;;5062000;28;20504;-61
2022/03/19 10:19:30;;;;;;;2.23;1.50;;;11.40;99.90;;;;;;5063891;28;20554;-60
2022/03/19 10:22:09;;;;;;;1.87;1.60;;;11.40;99.90;;;;;;5063669;28;20463;-60
2022/03/19 10:24:40;;;;;;;3.03;1.60;;;11.40;99.90;;;;;;5063812;28;20457;-60
2022/03/19 10:27:20;;;;;;;2.20;1.87;;;11.30;99.90;;;;;;5063686;28;20445;-60
2022/03/19 10:30:04;;;;;;;1.60;1.50;;;11.40;99.90;;;;;;5072935;28;20889;-60
2022/03/19 10:32:39;;;;;;;2.07;1.67;;;11.40;99.90;;;;;;5064476;28;20444;-60
2022/03/19 10:35:28;;;;;;;3.03;1.83;;;11.40;99.90;;;;;;5064203;28;20491;-60
2022/03/19 10:38:01;;;;;;;3.03;2.73;;;11.40;99.90;;;;;;5060394;28;20448;-60
2022/03/19 10:40:42;;;;;;;2.83;1.90;;;11.30;99.90;;;;;;5077436;28;20459;-60
2022/03/19 10:43:13;;;;;;;3.07;1.73;;;11.20;99.90;;;;;;5061264;28;20482;-59
2022/03/19 10:45:45;;;;;;;2.00;1.80;;;11.20;99.90;;;;;;5064423;28;20530;-60
2022/03/19 10:48:20;;;;;;;2.50;2.17;;;11.10;99.90;;;;;;5063625;28;21016;-60
2022/03/19 10:50:52;;;;;;;2.70;1.83;;;11.00;99.90;;;;;;5063919;28;20458;-60
2022/03/19 10:53:24;;;;;;;3.53;2.50;;;11.00;99.90;;;;;;5055137;28;20555;-60
2022/03/19 10:55:55;;;;;;;4.20;1.37;;;11.00;99.90;;;;;;5063115;28;20514;-60
2022/03/19 10:58:26;;;;;;;2.30;1.73;;;10.90;99.90;;;;;;5061942;28;20452;-60
2022/03/19 11:01:13;;;;;;;3.87;2.30;;;10.80;99.90;;;;;;5066388;28;20456;-60
2022/03/19 11:03:46;;;;;;;2.77;1.70;;;10.70;99.90;;;;;;5063522;28;20453;-61
2022/03/19 11:06:22;;;;;;;2.97;2.40;;;10.70;99.90;;;;;;5064056;28;20443;-61
2022/03/19 11:08:54;;;;;;;4.93;2.27;;;10.70;99.90;;;;;;5062690;28;20518;-60
2022/03/19 11:11:36;;;;;;;2.80;2.00;;;10.60;99.90;;;;;;5063118;28;20456;-60
2022/03/19 11:14:09;;;;;;;2.40;1.53;;;10.50;99.90;;;;;;5063577;28;20452;-60
2022/03/19 11:16:41;;;;;;;1.97;1.77;;;10.40;99.90;;;;;;5063201;28;20506;-61
2022/03/19 11:19:14;;;;;;;2.20;1.97;;;10.40;99.90;;;;;;5063535;28;20547;-61
2022/03/19 11:21:45;;;;;;;2.67;2.00;;;10.40;99.90;;;;;;5063583;28;20508;-61
2022/03/19 11:24:24;;;;;;;1.70;1.60;;;10.40;99.90;;;;;;5060721;28;20444;-61
2022/03/19 11:26:56;;;;;;;3.03;2.17;;;10.30;99.90;;;;;;5062969;28;20531;-60
2022/03/19 11:29:27;;;;;;;3.57;2.27;;;10.30;99.90;;;;;;5062155;28;20581;-61
2022/03/19 11:32:01;;;;;;;4.40;2.10;;;10.20;99.90;;;;;;5061452;28;20444;-60
2022/03/19 11:34:47;;;;;;;3.80;2.07;;;10.20;99.90;;;;;;5063176;28;20458;-60
2022/03/19 11:37:18;;;;;;;3.30;1.80;;;10.20;99.90;;;;;;5062760;28;20533;-60
2022/03/19 11:40:35;;;;;;;2.87;1.60;;;10.20;99.90;;;;;;5063587;28;20493;-60
2022/03/19 11:43:31;;;;;;;1.80;1.17;;;10.10;99.90;;;;;;5054972;28;20440;-60
2022/03/19 11:46:03;;;;;;;2.30;1.50;;;10.10;99.90;;;;;;5075418;28;20439;-60
2022/03/19 11:48:48;;;;;;;3.63;2.00;;;10.10;99.90;;;;;;5061850;28;20449;-60
2022/03/19 11:51:44;;;;;;;2.50;1.90;;;10.20;99.90;;;;;;5062133;28;20449;-60
2022/03/19 11:54:19;;;;;;;3.27;1.80;;;10.20;99.90;;;;;;5068958;28;20554;-60
2022/03/19 11:57:09;;;;;;;2.83;1.77;;;10.10;99.90;;;;;;5062479;28;20487;-60
2022/03/19 11:59:48;;;;;;;2.93;1.60;;;10.10;99.90;;;;;;5062868;28;22176;-60
2022/03/19 12:02:19;;;;;;;2.47;2.03;;;10.10;99.90;;;;;;5060341;28;20457;-60
2022/03/19 12:04:51;;;;;;;2.00;1.67;;;10.10;99.90;;;;;;5062758;28;20448;-60
2022/03/19 12:07:45;;;;;;;3.97;2.00;;;10.10;99.90;;;;;;5061885;28;20433;-60
2022/03/19 12:10:17;;;;;;;2.60;1.30;;;10.10;99.90;;;;;;5062473;28;20432;-60
2022/03/19 12:12:48;;;;;;;2.70;1.80;;;10.10;99.90;;;;;;5060869;28;20456;-60
2022/03/19 12:15:51;;;;;;;3.00;1.50;;;10.00;99.90;;;;;;5070246;28;20452;-58
2022/03/19 12:18:33;;;;;;;1.90;1.53;;;10.00;99.90;;;;;;5060776;28;20487;-59
2022/03/19 12:21:05;;;;;;;3.10;2.30;;;10.00;99.90;;;;;;5062507;28;20456;-60
2022/03/19 12:23:51;;;;;;;2.50;1.67;;;10.00;99.90;;;;;;5061002;28;20456;-60
2022/03/19 12:26:24;;;;;;;2.97;1.77;;;9.90;99.90;;;;;;5060827;28;20458;-60
2022/03/19 12:29:01;;;;;;;3.30;1.50;;;9.90;99.90;;;;;;5060820;28;20436;-60
2022/03/19 12:31:33;;;;;;;4.10;1.77;;;9.90;99.90;;;;;;5056118;28;20447;-60
2022/03/19 12:34:05;;;;;;;4.10;1.70;;;9.90;99.90;;;;;;5061313;28;20783;-59
2022/03/19 12:36:36;;;;;;;3.60;1.60;;;9.80;99.90;;;;;;5062077;28;20499;-59
2022/03/19 12:39:08;;;;;;;2.97;1.58;;;9.80;99.90;;;;;;5061573;28;20284;-59
2022/03/19 12:41:40;;;;;;;3.70;1.63;;;9.80;99.90;;;;;;5061946;28;20206;-59
2022/03/19 12:44:33;;;;;;;6.40;1.77;;;9.70;99.90;;;;;;5047759;28;20456;-60
2022/03/19 12:47:06;;;;;;;3.60;1.60;;;9.70;99.90;;;;;;5061900;28;20482;-59
2022/03/19 12:49:37;;;;;;;1.90;1.30;;;9.80;99.90;;;;;;5061701;28;20647;-59
2022/03/19 12:52:10;;;;;;;3.57;1.50;;;9.80;99.90;;;;;;5060474;28;20448;-59
2022/03/19 12:54:48;;;;;;;3.50;1.30;;;9.80;99.90;;;;;;5074954;28;20489;-59
2022/03/19 12:57:24;;;;;;;2.20;1.30;;;9.80;99.90;;;;;;5060349;28;20490;-59
2022/03/19 13:00:00;;;;;;;2.73;1.70;;;9.80;99.90;;;;;;5065102;28;20666;-60
2022/03/19 13:02:31;;;;;;;5.37;1.33;;;9.70;99.90;;;;;;5060210;28;20458;-60
2022/03/19 13:05:03;;;;;;;3.40;1.45;;;9.70;99.90;;;;;;5062167;28;20449;-60
2022/03/19 13:07:33;;;;;;;2.10;1.30;;;9.70;99.90;;;;;;5061203;28;20206;-60
2022/03/19 13:10:15;;;;;;;1.40;1.10;;;9.70;99.90;;;;;;5060798;28;20457;-60
2022/03/19 13:12:52;;;;;;;7.70;1.77;;;9.70;99.90;;;;;;5049432;28;20455;-60
2022/03/19 13:15:22;;;;;;;1.97;1.00;;;9.70;99.90;;;;;;5065220;28;20467;-60
2022/03/19 13:17:53;;;;;;;1.70;0.90;;;9.70;99.90;;;;;;5061094;28;20509;-59
2022/03/19 13:20:24;;;;;;;5.82;1.85;;;9.70;99.90;;;;;;5066041;28;20456;-59
2022/03/19 13:23:02;;;;;;;2.90;1.00;;;9.70;99.90;;;;;;5064634;28;20216;-59
2022/03/19 13:25:34;;;;;;;1.90;0.93;;;9.60;99.90;;;;;;5064916;28;20205;-60
2022/03/19 13:28:07;;;;;;;2.08;1.17;;;9.60;99.90;;;;;;5063797;28;20209;-60
2022/03/19 13:30:38;;;;;;;3.30;1.17;;;9.60;99.90;;;;;;5052688;28;20666;-59
2022/03/19 13:33:14;;;;;;;1.70;1.15;;;9.60;99.90;;;;;;5063982;28;20480;-60
2022/03/19 13:35:47;;;;;;;3.37;1.60;;;9.60;99.90;;;;;;5065621;28;20196;-58